Terminal Aerodrome Forecast
Issued by NWS Tampa Bay Area, FL

Home | Current Version | Previous Version | Text Only | Print | Product List | Glossary On
Versions: 1 2 3 4 5 6 7 8 9 10 11 12 13 14 15 16 17 18 19 20 21 22 23 24 25
000
FTUS42 KTBW 042334
TAFTPA
TAF
KTPA 042334Z 0500/0524 17005KT P6SM FEW050 SCT250
     FM050900 16005KT 4SM BR BKN020 BKN110
     FM051500 15009KT P6SM BKN070
     FM052100 19008KT P6SM VCSH BKN040 OVC100=

USA.gov is the U.S. government's official web portal to all federal, state and local government web resources and services.